Airfield :
LOGIN :

Register | Disclaimer

   EN    FR    IT 

 










Legend :    VFR   Marginal VFR   IFR   Intensive IFR   Very Intensive IFR
Visi :
Ceiling :
>= 8 km
>= 3000ft
5 to 8 km
1000 to 3000 ft
1500m to 5 km
500 to 1000 ft
800 to 1500m
200 to 500 ft
< 800m
< 200 ft
Symbols :   Thunderstorms  Fog  Heavy snow  Heavy precipitations  Wind > 20 kt
SIGMETs :     Misc.  Thunderstorms  Icing  Turbulence  Mountain Waves  Volcanic Ashes






- Airport Elevation : 284 ft


EGUW - RAF Wattisham

CURRENT METAR :
  • 202120Z 27016KT CAVOK 03/M01 Q1017 NOSIG RMK BLU BLU

EXPIRED METARs :
  • 202050Z 27017KT CAVOK 03/M00 Q1016 NOSIG RMK BLU BLU
  • 202022Z 27016KT CAVOK 04/M00 Q1015 NOSIG RMK BLU BLU
  • 201950Z 27013KT CAVOK 03/01 Q1015 NOSIG RMK BLU BLU
  • 201925Z 27013KT CAVOK 03/01 Q1014 NOSIG RMK BLU BLU
  • 201850Z 28013KT 9999 FEW045 04/01 Q1013 NOSIG RMK BLU BLU

TAF TAF EGUW
Valid from the 20 at 21:00 until the 21 at 02:00 UTC


201932Z 2021/2102 22014KT 9999 FEW030
TEMPO 2021/2102 22015G25KT



MET'MAP, your aeronautical weather chart ! - Copyright ORBIFLY December 2007 - Disclaimer

ORBIFLY MET'MAP TEAM :

Programming & Development : Alexandra Zaïnal
Concept & original design : Baudouin d'Aumeries
Assistance for programming : Marc-Olivier Méhu
Technical & hardware support : Manuel Goepfert

Contact : metmap@orbifly.com




SOURCES & CREDITS :

   NOAA